createdAt,value
2022-12-23T20:49:56.839Z,44.00
2022-12-23T20:52:29.896Z,44.00
2022-12-23T20:54:57.219Z,45.07
2022-12-23T20:57:33.571Z,44.80
2022-12-23T21:00:04.141Z,44.30
2022-12-23T21:02:37.040Z,44.14
2022-12-23T21:05:06.755Z,44.14
2022-12-23T21:07:43.463Z,44.22
2022-12-23T21:10:17.055Z,44.19
2022-12-23T21:12:49.739Z,44.18
2022-12-23T21:15:22.479Z,43.56
2022-12-23T21:17:55.324Z,42.95
2022-12-23T21:20:25.971Z,42.35
2022-12-23T21:22:58.247Z,42.58
2022-12-23T21:25:31.148Z,42.68
2022-12-23T21:28:04.156Z,43.42
2022-12-23T21:30:34.043Z,43.63
2022-12-23T21:33:04.783Z,43.77
2022-12-23T21:35:36.768Z,43.70
2022-12-23T21:40:49.881Z,43.89
2022-12-23T21:43:23.766Z,43.88
2022-12-23T21:46:03.188Z,43.84
2022-12-23T21:48:39.795Z,43.80
2022-12-23T21:51:13.215Z,43.73
2022-12-23T21:53:47.928Z,43.66
2022-12-23T21:56:25.689Z,43.58
2022-12-23T21:59:00.410Z,43.48
2022-12-23T22:01:30.962Z,43.40
2022-12-23T22:06:32.631Z,43.32
2022-12-23T22:09:10.280Z,43.17
2022-12-23T22:11:43.001Z,43.10
2022-12-23T22:14:17.448Z,43.10
2022-12-23T22:16:57.411Z,43.09
2022-12-23T22:19:25.959Z,43.00
2022-12-23T22:21:57.999Z,42.98
2022-12-23T22:24:32.579Z,42.94
2022-12-23T22:27:08.897Z,42.86
2022-12-23T22:29:45.245Z,42.94
2022-12-23T22:32:23.168Z,42.90
2022-12-23T22:35:01.900Z,42.97
2022-12-23T22:37:36.526Z,42.82
2022-12-23T22:40:09.568Z,42.77
2022-12-23T22:42:42.576Z,42.86
2022-12-23T22:45:18.866Z,42.80
2022-12-23T22:47:52.571Z,42.81
2022-12-23T22:50:22.576Z,42.87
2022-12-23T22:52:55.994Z,42.72
2022-12-23T22:55:26.511Z,42.81
2022-12-23T22:57:53.579Z,42.80
2022-12-23T23:00:28.981Z,42.59
2022-12-23T23:02:59.649Z,42.61
2022-12-23T23:05:39.068Z,42.53
2022-12-23T23:08:12.484Z,42.51
2022-12-23T23:10:53.517Z,42.44
2022-12-23T23:13:25.716Z,42.42
2022-12-23T23:15:57.787Z,42.33
2022-12-23T23:18:26.321Z,42.22
2022-12-23T23:21:00.774Z,42.17
2022-12-23T23:23:35.215Z,42.17
2022-12-23T23:26:15.265Z,42.14
2022-12-23T23:28:59.260Z,42.04
2022-12-23T23:31:41.744Z,42.04
2022-12-23T23:34:25.565Z,41.96
2022-12-23T23:39:48.521Z,41.90
2022-12-23T23:42:24.487Z,41.85
2022-12-23T23:45:00.421Z,41.85
2022-12-23T23:47:32.513Z,41.89
2022-12-23T23:50:07.656Z,41.85
2022-12-23T23:52:41.364Z,41.95
2022-12-23T23:55:15.449Z,41.86
2022-12-23T23:57:51.390Z,41.88
